createdAt,value
2019-05-01T00:00:50.862Z,11.41
2019-05-01T00:03:28.598Z,11.37
2019-05-01T00:05:59.749Z,11.41
2019-05-01T00:08:32.130Z,11.39
2019-05-01T00:11:01.718Z,11.19
2019-05-01T00:13:32.834Z,11.10
2019-05-01T00:16:02.294Z,11.10
2019-05-01T00:18:31.854Z,11.07
2019-05-01T00:21:01.673Z,11.07
2019-05-01T00:23:31.173Z,11.03
2019-05-01T00:26:00.696Z,10.92
2019-05-01T00:28:30.266Z,10.92
2019-05-01T00:30:59.862Z,10.91
2019-05-01T00:33:29.402Z,10.98
2019-05-01T00:35:58.881Z,10.97
2019-05-01T00:38:28.401Z,11.02
2019-05-01T00:40:57.885Z,10.88
2019-05-01T00:43:27.353Z,10.86
2019-05-01T00:45:56.828Z,10.86
2019-05-01T00:48:26.350Z,10.66
2019-05-01T00:50:55.919Z,10.66
2019-05-01T00:53:25.389Z,10.64
2019-05-01T00:56:11.499Z,10.67
2019-05-01T00:59:00.959Z,10.72
2019-05-01T01:01:32.023Z,10.69
2019-05-01T01:04:01.526Z,10.63
2019-05-01T01:06:31.045Z,10.63
2019-05-01T01:09:00.655Z,10.65
2019-05-01T01:11:31.718Z,10.69
2019-05-01T01:14:01.176Z,10.69
2019-05-01T01:16:30.697Z,10.70
2019-05-01T01:19:00.119Z,10.68
2019-05-01T01:21:29.561Z,10.64
2019-05-01T01:23:59.328Z,10.68
2019-05-01T01:26:29.027Z,10.67
2019-05-01T01:28:58.593Z,10.76
2019-05-01T01:31:28.122Z,10.73
2019-05-01T01:33:58.687Z,10.73
2019-05-01T01:36:28.133Z,10.71
2019-05-01T01:38:57.719Z,10.63
2019-05-01T01:41:27.285Z,10.64
2019-05-01T01:44:01.247Z,10.69
2019-05-01T01:46:32.488Z,10.61
2019-05-01T01:49:02.061Z,10.62
2019-05-01T01:51:31.756Z,10.59
2019-05-01T01:54:02.396Z,10.58
2019-05-01T01:56:32.881Z,10.55
2019-05-01T01:59:02.636Z,10.56
2019-05-01T02:01:42.902Z,10.57
2019-05-01T02:04:20.628Z,10.62
2019-05-01T02:06:50.749Z,10.51
2019-05-01T02:09:20.280Z,10.51
2019-05-01T02:11:49.885Z,10.50
2019-05-01T02:14:19.368Z,10.41
2019-05-01T02:16:49.962Z,10.40
2019-05-01T02:19:19.380Z,10.42
2019-05-01T02:21:48.975Z,10.38
2019-05-01T02:24:18.475Z,10.37
2019-05-01T02:26:52.588Z,10.29
2019-05-01T02:29:27.322Z,10.29
2019-05-01T02:31:58.399Z,10.30
2019-05-01T02:34:29.269Z,10.21
2019-05-01T02:37:03.953Z,10.24
2019-05-01T02:39:35.515Z,10.18
2019-05-01T02:42:06.410Z,10.23
2019-05-01T02:44:42.031Z,10.27
2019-05-01T02:47:14.545Z,10.24
2019-05-01T02:49:52.765Z,10.29
2019-05-01T02:52:25.643Z,10.31
2019-05-01T02:54:58.329Z,10.20
2019-05-01T02:57:28.587Z,10.13
2019-05-01T02:59:59.915Z,10.14
2019-05-01T03:02:30.567Z,10.12
2019-05-01T03:05:01.156Z,10.04
2019-05-01T03:07:34.256Z,10.05
2019-05-01T03:10:08.942Z,10.04
2019-05-01T03:12:39.335Z,9.94
2019-05-01T03:15:09.893Z,9.93
2019-05-01T03:17:47.590Z,9.96
2019-05-01T03:20:35.424Z,10.03
2019-05-01T03:23:16.199Z,9.93
2019-05-01T03:25:45.859Z,9.92
2019-05-01T03:28:15.442Z,9.92
2019-05-01T03:30:45.038Z,9.79
2019-05-01T03:33:14.551Z,9.78
2019-05-01T03:35:44.411Z,9.78
2019-05-01T03:38:14.200Z,9.74
2019-05-01T03:40:43.748Z,9.78
2019-05-01T03:43:13.627Z,9.78
2019-05-01T03:45:43.903Z,9.85
2019-05-01T03:48:13.697Z,9.85
2019-05-01T03:50:46.465Z,9.90
2019-05-01T03:53:14.676Z,9.92
2019-05-01T03:55:44.169Z,9.98
2019-05-01T03:58:14.241Z,9.97
2019-05-01T04:01:01.896Z,9.97
2019-05-01T04:03:45.337Z,9.93
2019-05-01T04:06:14.929Z,9.88
2019-05-01T04:08:44.947Z,9.88
2019-05-01T04:11:14.718Z,9.83
2019-05-01T04:13:44.437Z,9.81
2019-05-01T04:16:14.680Z,9.78
2019-05-01T04:18:44.349Z,9.78
2019-05-01T04:21:13.836Z,9.80
2019-05-01T04:23:43.611Z,9.75
2019-05-01T04:26:13.190Z,9.74
2019-05-01T04:28:50.534Z,9.76
2019-05-01T04:31:32.341Z,9.73
2019-05-01T04:34:06.228Z,9.77
2019-05-01T04:36:47.918Z,9.78
2019-05-01T04:39:17.636Z,9.76
2019-05-01T04:41:47.424Z,9.78
2019-05-01T04:44:17.698Z,9.83
2019-05-01T04:46:47.264Z,9.75
2019-05-01T04:49:18.177Z,9.74
2019-05-01T04:51:48.080Z,9.77
2019-05-01T04:54:17.678Z,9.85
2019-05-01T04:56:48.050Z,9.82
2019-05-01T04:59:17.710Z,9.92
2019-05-01T05:02:02.044Z,9.81
2019-05-01T05:04:32.003Z,9.87
2019-05-01T05:07:01.566Z,9.92
2019-05-01T05:09:45.413Z,10.00
2019-05-01T05:12:28.467Z,10.04
2019-05-01T05:15:00.231Z,10.07
2019-05-01T05:17:29.926Z,9.99
2019-05-01T05:19:59.700Z,9.99
2019-05-01T05:22:30.359Z,9.96
2019-05-01T05:25:00.041Z,9.87
2019-05-01T05:27:30.219Z,9.94
2019-05-01T05:29:59.972Z,9.95
2019-05-01T05:32:30.225Z,9.97
2019-05-01T05:35:06.467Z,10.04
2019-05-01T05:37:42.521Z,9.96
2019-05-01T05:40:12.170Z,10.02
2019-05-01T05:42:41.701Z,10.06
2019-05-01T05:45:11.295Z,10.19
2019-05-01T05:47:40.869Z,10.13
2019-05-01T05:50:12.099Z,10.07
2019-05-01T05:52:53.813Z,10.09
2019-05-01T05:55:39.123Z,9.95
2019-05-01T05:58:13.259Z,9.81
2019-05-01T06:00:46.084Z,9.61
2019-05-01T06:03:35.886Z,9.61
2019-05-01T06:06:14.713Z,9.56
2019-05-01T06:08:46.739Z,9.54
2019-05-01T06:11:36.985Z,9.61
2019-05-01T06:14:13.310Z,9.70
2019-05-01T06:16:56.351Z,9.71
2019-05-01T06:19:39.990Z,9.85
2019-05-01T06:22:21.316Z,9.91
2019-05-01T06:24:58.497Z,9.86
2019-05-01T06:27:29.158Z,9.91
2019-05-01T06:30:00.960Z,9.95
2019-05-01T06:32:33.581Z,9.81
2019-05-01T06:35:03.190Z,9.86
2019-05-01T06:37:51.209Z,9.81
2019-05-01T06:40:23.602Z,9.93
2019-05-01T06:42:53.416Z,10.01
2019-05-01T06:45:24.558Z,9.98
2019-05-01T06:47:58.707Z,10.01
2019-05-01T06:50:37.115Z,10.05
2019-05-01T06:53:06.170Z,10.15
2019-05-01T06:55:36.602Z,10.16
2019-05-01T06:58:06.706Z,10.23
2019-05-01T07:00:39.109Z,10.32
2019-05-01T07:03:11.545Z,10.45
2019-05-01T07:05:44.463Z,10.39
2019-05-01T07:08:23.985Z,10.48
2019-05-01T07:10:45.909Z,10.61
2019-05-01T07:13:15.782Z,10.65
2019-05-01T07:15:45.681Z,10.66
2019-05-01T07:18:18.765Z,10.82
2019-05-01T07:20:51.890Z,10.97
2019-05-01T07:23:22.872Z,11.00
2019-05-01T07:25:52.597Z,11.05
2019-05-01T07:28:23.094Z,11.13
2019-05-01T07:30:55.107Z,11.18
2019-05-01T07:33:25.591Z,11.36
2019-05-01T07:35:55.155Z,11.34
2019-05-01T07:38:24.749Z,11.41
2019-05-01T07:40:54.579Z,11.27
2019-05-01T07:43:42.485Z,11.45
2019-05-01T07:46:18.229Z,11.47
2019-05-01T07:48:45.943Z,11.56
2019-05-01T07:51:15.607Z,11.74
2019-05-01T07:53:45.603Z,11.77
2019-05-01T07:56:17.252Z,11.85
2019-05-01T07:58:51.992Z,11.86
2019-05-01T08:01:26.977Z,12.00
2019-05-01T08:03:56.483Z,11.97
2019-05-01T08:06:26.423Z,12.25
2019-05-01T08:08:55.862Z,12.34
2019-05-01T08:11:25.387Z,12.54
2019-05-01T08:14:01.507Z,12.38
2019-05-01T08:16:26.004Z,12.40
2019-05-01T08:18:59.160Z,12.26
2019-05-01T08:21:30.057Z,12.34
2019-05-01T08:23:59.486Z,12.34
2019-05-01T08:26:29.017Z,12.52
2019-05-01T08:29:06.575Z,12.73
2019-05-01T08:31:52.186Z,12.78
2019-05-01T08:34:33.611Z,12.79
2019-05-01T08:37:03.061Z,12.98
2019-05-01T08:39:32.492Z,13.12
2019-05-01T08:42:03.006Z,13.04
2019-05-01T08:44:34.708Z,13.23
2019-05-01T08:47:25.804Z,13.27
2019-05-01T08:49:55.154Z,13.48
2019-05-01T08:52:26.329Z,13.27
2019-05-01T08:54:55.833Z,13.22
2019-05-01T08:57:29.266Z,13.39
2019-05-01T09:00:00.272Z,13.66
2019-05-01T09:02:28.155Z,13.70
2019-05-01T09:05:02.597Z,13.81
2019-05-01T09:07:28.826Z,13.97
2019-05-01T09:09:58.332Z,14.15
2019-05-01T09:12:27.811Z,14.00
2019-05-01T09:14:57.248Z,14.17
2019-05-01T09:17:26.701Z,14.29
2019-05-01T09:19:56.152Z,14.27
2019-05-01T09:22:27.372Z,14.24
2019-05-01T09:25:00.047Z,14.19
2019-05-01T09:27:31.175Z,14.39
2019-05-01T09:30:21.991Z,14.36
2019-05-01T09:32:54.623Z,14.47
2019-05-01T09:35:23.025Z,14.43
2019-05-01T09:37:52.615Z,14.57
2019-05-01T09:40:25.697Z,14.53
2019-05-01T09:42:59.440Z,14.33
2019-05-01T09:45:26.384Z,14.43
2019-05-01T09:47:58.668Z,14.57
2019-05-01T09:50:30.447Z,14.77
2019-05-01T09:53:07.196Z,14.74
2019-05-01T09:55:38.340Z,14.90
2019-05-01T09:58:08.015Z,14.90
2019-05-01T10:00:37.693Z,14.85
2019-05-01T10:03:07.343Z,15.01
2019-05-01T10:05:37.969Z,15.13
2019-05-01T10:08:08.010Z,15.32
2019-05-01T10:10:37.437Z,15.51
2019-05-01T10:13:07.953Z,15.58
2019-05-01T10:15:37.520Z,15.74
2019-05-01T10:18:09.083Z,15.49
2019-05-01T10:20:45.701Z,15.54
2019-05-01T10:23:16.612Z,15.72
2019-05-01T10:25:49.754Z,15.77
2019-05-01T10:28:20.972Z,15.74
2019-05-01T10:31:11.868Z,15.90
2019-05-01T10:33:50.312Z,15.96
2019-05-01T10:36:25.238Z,16.13
2019-05-01T10:38:54.790Z,16.27
2019-05-01T10:41:27.272Z,16.27
2019-05-01T10:43:56.833Z,16.27
2019-05-01T10:46:26.286Z,16.35
2019-05-01T10:48:57.415Z,15.93
2019-05-01T10:51:28.640Z,16.07
2019-05-01T10:54:00.565Z,16.29
2019-05-01T10:56:30.159Z,16.42
2019-05-01T10:58:59.735Z,16.54
2019-05-01T11:01:31.056Z,16.80
2019-05-01T11:04:00.575Z,16.86
2019-05-01T11:06:30.145Z,16.54
2019-05-01T11:08:59.610Z,16.38
2019-05-01T11:11:29.136Z,16.54
2019-05-01T11:13:58.662Z,16.78
2019-05-01T11:16:28.124Z,16.90
2019-05-01T11:18:57.629Z,16.96
2019-05-01T11:21:30.217Z,17.02
2019-05-01T11:23:59.640Z,17.19
2019-05-01T11:26:29.163Z,17.12
2019-05-01T11:28:58.658Z,17.17
2019-05-01T11:31:48.871Z,17.24
2019-05-01T11:34:29.281Z,17.35
2019-05-01T11:37:16.660Z,17.31
2019-05-01T11:39:59.954Z,17.10
2019-05-01T11:42:29.543Z,17.18
2019-05-01T11:45:00.583Z,17.41
2019-05-01T11:47:30.035Z,17.50
2019-05-01T11:49:59.471Z,17.45
2019-05-01T11:52:29.109Z,17.60
2019-05-01T11:54:58.549Z,17.67
2019-05-01T11:57:28.008Z,17.73
2019-05-01T11:59:57.525Z,17.77
2019-05-01T12:02:27.705Z,17.76
2019-05-01T12:04:57.198Z,17.82
2019-05-01T12:07:26.655Z,17.86
2019-05-01T12:09:56.161Z,17.90
2019-05-01T12:12:27.272Z,17.99
2019-05-01T12:14:56.703Z,17.89
2019-05-01T12:17:28.944Z,18.15
2019-05-01T12:19:58.373Z,18.35
2019-05-01T12:22:27.915Z,18.44
2019-05-01T12:24:58.408Z,18.40
2019-05-01T12:27:27.842Z,18.51
2019-05-01T12:29:57.310Z,18.56
2019-05-01T12:32:26.762Z,18.76
2019-05-01T12:34:56.209Z,18.71
2019-05-01T12:37:27.300Z,18.72
2019-05-01T12:39:56.736Z,18.75
2019-05-01T12:42:27.915Z,18.81
2019-05-01T12:44:57.441Z,18.80
2019-05-01T12:47:40.716Z,18.81
2019-05-01T12:50:10.580Z,18.86
2019-05-01T12:52:44.634Z,18.74
2019-05-01T12:55:31.232Z,18.95
2019-05-01T12:58:00.830Z,18.94
2019-05-01T13:00:55.794Z,18.77
2019-05-01T13:03:25.253Z,18.80
2019-05-01T13:05:54.709Z,18.95
2019-05-01T13:08:26.566Z,18.96
2019-05-01T13:10:56.346Z,19.12
2019-05-01T13:13:25.856Z,19.02
2019-05-01T13:15:55.957Z,19.11
2019-05-01T13:18:27.637Z,19.13
2019-05-01T13:20:57.097Z,18.94
2019-05-01T13:23:26.596Z,18.88
2019-05-01T13:25:57.764Z,19.28
2019-05-01T13:28:34.514Z,19.09
2019-05-01T13:31:11.690Z,19.18
2019-05-01T13:33:43.987Z,18.86
2019-05-01T13:36:13.716Z,19.00
2019-05-01T13:38:43.286Z,19.16
2019-05-01T13:41:14.250Z,18.83
2019-05-01T13:43:44.211Z,19.01
2019-05-01T13:46:13.675Z,18.76
2019-05-01T13:48:43.165Z,18.62
2019-05-01T13:51:12.612Z,18.77
2019-05-01T13:53:42.061Z,18.89
2019-05-01T13:56:11.688Z,18.87
2019-05-01T13:58:42.667Z,18.97
2019-05-01T14:01:12.689Z,19.19
2019-05-01T14:03:42.971Z,19.36
2019-05-01T14:06:12.493Z,19.40
2019-05-01T14:08:42.150Z,19.05
2019-05-01T14:11:11.609Z,19.04
2019-05-01T14:13:41.255Z,19.03
2019-05-01T14:16:10.844Z,18.96
2019-05-01T14:18:42.709Z,18.96
2019-05-01T14:21:20.029Z,18.86
2019-05-01T14:23:51.096Z,18.90
2019-05-01T14:26:20.547Z,19.01
2019-05-01T14:28:49.987Z,19.14
2019-05-01T14:31:19.420Z,19.22
2019-05-01T14:33:49.933Z,19.02
2019-05-01T14:36:20.964Z,19.37
2019-05-01T14:38:50.430Z,19.39
2019-05-01T14:41:22.683Z,19.29
2019-05-01T14:43:52.135Z,19.31
2019-05-01T14:46:21.563Z,19.58
2019-05-01T14:48:51.019Z,19.55
2019-05-01T14:51:21.824Z,19.44
2019-05-01T14:53:51.477Z,19.11
2019-05-01T14:56:20.986Z,19.06
2019-05-01T14:58:50.506Z,19.08
2019-05-01T15:01:20.057Z,19.31
2019-05-01T15:03:51.602Z,19.25
2019-05-01T15:06:21.183Z,19.31
2019-05-01T15:08:50.648Z,19.27
2019-05-01T15:11:22.799Z,19.47
2019-05-01T15:13:54.040Z,19.32
2019-05-01T15:16:41.051Z,19.20
2019-05-01T15:19:18.122Z,19.35
2019-05-01T15:21:50.405Z,19.48
2019-05-01T15:24:19.831Z,19.20
2019-05-01T15:26:51.386Z,19.07
2019-05-01T15:29:20.491Z,19.33
2019-05-01T15:31:49.930Z,19.09
2019-05-01T15:34:19.396Z,19.07
2019-05-01T15:36:48.831Z,19.09
2019-05-01T15:39:19.916Z,19.00
2019-05-01T15:42:06.386Z,18.95
2019-05-01T15:44:40.304Z,18.80
2019-05-01T15:47:09.826Z,18.68
2019-05-01T15:49:39.334Z,18.50
2019-05-01T15:52:08.788Z,18.57
2019-05-01T15:54:38.301Z,18.82
2019-05-01T15:57:07.740Z,18.71
2019-05-01T15:59:37.186Z,18.31
2019-05-01T16:02:09.182Z,18.52
2019-05-01T16:04:40.254Z,18.45
2019-05-01T16:07:09.704Z,18.47
2019-05-01T16:09:40.845Z,18.51
2019-05-01T16:12:27.055Z,18.37
2019-05-01T16:14:56.595Z,17.97
2019-05-01T16:17:26.397Z,18.07
2019-05-01T16:19:58.395Z,18.08
2019-05-01T16:22:27.841Z,17.91
2019-05-01T16:24:57.390Z,17.85
2019-05-01T16:27:26.818Z,17.68
2019-05-01T16:29:56.278Z,17.60
2019-05-01T16:32:25.809Z,17.50
2019-05-01T16:34:55.319Z,17.53
2019-05-01T16:37:24.848Z,17.42
2019-05-01T16:39:58.967Z,17.46
2019-05-01T16:42:30.127Z,17.47
2019-05-01T16:44:59.857Z,17.39
2019-05-01T16:47:29.286Z,17.14
2019-05-01T16:49:58.824Z,17.08
2019-05-01T16:52:29.838Z,17.11
2019-05-01T16:55:00.539Z,17.13
2019-05-01T16:57:31.539Z,17.12
2019-05-01T17:00:02.624Z,17.12
2019-05-01T17:02:47.763Z,17.11
2019-05-01T17:05:19.439Z,17.01
2019-05-01T17:08:07.036Z,16.98
2019-05-01T17:10:47.274Z,16.80
2019-05-01T17:13:17.273Z,16.67
2019-05-01T17:15:48.336Z,16.46
2019-05-01T17:18:18.134Z,16.46
2019-05-01T17:20:50.312Z,16.46
2019-05-01T17:23:19.994Z,16.39
2019-05-01T17:25:51.883Z,16.41
2019-05-01T17:28:21.454Z,16.30
2019-05-01T17:30:53.000Z,16.13
2019-05-01T17:33:22.457Z,16.04
2019-05-01T17:35:55.352Z,16.08
2019-05-01T17:38:27.740Z,15.99
2019-05-01T17:40:58.792Z,15.94
2019-05-01T17:43:29.943Z,15.76
2019-05-01T17:45:59.379Z,15.70
2019-05-01T17:48:34.894Z,15.74
2019-05-01T17:51:04.582Z,15.67
2019-05-01T17:53:34.041Z,15.63
2019-05-01T17:56:09.976Z,15.55
2019-05-01T17:58:40.382Z,15.47
2019-05-01T18:01:33.098Z,15.41
2019-05-01T18:04:00.902Z,15.42
2019-05-01T18:06:31.978Z,15.31
2019-05-01T18:09:03.282Z,15.20
2019-05-01T18:11:34.068Z,15.24
2019-05-01T18:14:05.710Z,15.15
2019-05-01T18:16:34.973Z,15.07
2019-05-01T18:19:09.836Z,14.99
2019-05-01T18:21:38.680Z,14.90
2019-05-01T18:24:23.038Z,14.78
2019-05-01T18:27:00.393Z,14.66
2019-05-01T18:29:39.759Z,14.60
2019-05-01T18:32:10.232Z,14.58
2019-05-01T18:34:39.658Z,14.48
2019-05-01T18:37:12.365Z,14.37
2019-05-01T18:39:46.507Z,14.33
2019-05-01T18:42:17.526Z,14.17
2019-05-01T18:44:48.749Z,14.05
2019-05-01T18:47:18.426Z,14.07
2019-05-01T18:49:48.071Z,13.92
2019-05-01T18:52:20.300Z,13.89
2019-05-01T18:54:49.750Z,13.74
2019-05-01T18:57:19.279Z,13.70
2019-05-01T18:59:48.881Z,13.65
2019-05-01T19:02:20.414Z,13.54
2019-05-01T19:04:49.629Z,13.45
2019-05-01T19:07:19.545Z,13.36
2019-05-01T19:09:49.218Z,13.34
2019-05-01T19:12:20.209Z,13.28
2019-05-01T19:14:49.734Z,13.32
2019-05-01T19:17:19.171Z,13.20
2019-05-01T19:19:52.053Z,13.13
2019-05-01T19:22:21.739Z,13.06
2019-05-01T19:24:51.272Z,13.02
2019-05-01T19:27:22.772Z,12.82
2019-05-01T19:29:52.131Z,12.83
2019-05-01T19:32:22.079Z,12.82
2019-05-01T19:34:54.630Z,12.75
2019-05-01T19:37:27.489Z,12.57
2019-05-01T19:39:55.549Z,12.50
2019-05-01T19:42:25.950Z,12.45
2019-05-01T19:44:56.259Z,12.48
2019-05-01T19:47:26.581Z,12.43
2019-05-01T19:49:56.153Z,12.37
2019-05-01T19:52:25.677Z,12.31
2019-05-01T19:54:55.267Z,12.31
2019-05-01T19:57:24.692Z,12.19
2019-05-01T19:59:54.123Z,12.19
2019-05-01T20:02:24.065Z,12.21
2019-05-01T20:04:53.642Z,12.11
2019-05-01T20:07:23.168Z,12.12
2019-05-01T20:09:56.998Z,11.97
2019-05-01T20:12:24.025Z,11.93
2019-05-01T20:14:53.472Z,11.89
2019-05-01T20:17:22.907Z,11.77
2019-05-01T20:19:52.437Z,11.79
2019-05-01T20:22:21.866Z,11.72
2019-05-01T20:24:51.536Z,11.69
2019-05-01T20:27:21.224Z,11.60
2019-05-01T20:29:50.778Z,11.54
2019-05-01T20:32:25.690Z,11.44
2019-05-01T20:34:52.690Z,11.41
2019-05-01T20:37:22.584Z,11.37
2019-05-01T20:39:52.102Z,11.36
2019-05-01T20:42:21.535Z,11.35
2019-05-01T20:45:03.948Z,11.31
2019-05-01T20:47:34.427Z,11.34
2019-05-01T20:49:53.513Z,11.30
2019-05-01T20:52:22.953Z,11.29
2019-05-01T20:54:52.396Z,11.25
2019-05-01T20:57:32.594Z,11.26
2019-05-01T21:00:02.120Z,11.18
2019-05-01T21:02:33.225Z,11.13
2019-05-01T21:05:19.425Z,11.06
2019-05-01T21:08:05.393Z,11.05
2019-05-01T21:10:49.810Z,11.02
2019-05-01T21:13:07.770Z,11.01
2019-05-01T21:15:37.427Z,10.96
2019-05-01T21:18:07.816Z,10.95
2019-05-01T21:20:37.271Z,10.96
2019-05-01T21:23:10.577Z,10.93
2019-05-01T21:25:37.850Z,10.88
2019-05-01T21:28:07.609Z,10.79
2019-05-01T21:30:38.666Z,10.72
2019-05-01T21:33:11.389Z,10.70
2019-05-01T21:35:40.943Z,10.68
2019-05-01T21:38:12.195Z,10.62
2019-05-01T21:40:43.738Z,10.67
2019-05-01T21:43:13.620Z,10.56
2019-05-01T21:45:43.457Z,10.55
2019-05-01T21:48:13.448Z,10.47
2019-05-01T21:50:43.872Z,10.43
2019-05-01T21:53:16.348Z,10.38
2019-05-01T21:55:45.796Z,10.31
2019-05-01T21:58:21.050Z,10.31
2019-05-01T22:00:50.507Z,10.24
2019-05-01T22:03:21.513Z,10.23
2019-05-01T22:05:51.582Z,10.21
2019-05-01T22:08:21.174Z,10.11
2019-05-01T22:10:52.474Z,10.10
2019-05-01T22:13:24.370Z,10.01
2019-05-01T22:16:13.211Z,9.99
2019-05-01T22:18:46.996Z,9.96
2019-05-01T22:21:23.817Z,9.87
2019-05-01T22:23:57.719Z,9.85
2019-05-01T22:26:28.853Z,9.82
2019-05-01T22:28:59.938Z,9.79
2019-05-01T22:31:34.119Z,9.78
2019-05-01T22:34:05.268Z,9.75
2019-05-01T22:36:34.689Z,9.72
2019-05-01T22:39:06.104Z,9.65
2019-05-01T22:41:38.266Z,9.64
2019-05-01T22:44:07.890Z,9.55
2019-05-01T22:46:39.019Z,9.51
2019-05-01T22:49:08.460Z,9.49
2019-05-01T22:51:37.940Z,9.39
2019-05-01T22:54:07.388Z,9.43
2019-05-01T22:56:36.902Z,9.38
2019-05-01T22:59:07.906Z,9.40
2019-05-01T23:01:37.435Z,9.42
2019-05-01T23:04:07.709Z,9.45
2019-05-01T23:06:41.738Z,9.37
2019-05-01T23:09:11.221Z,9.33
2019-05-01T23:11:42.372Z,9.32
2019-05-01T23:14:13.471Z,9.29
2019-05-01T23:16:44.693Z,9.22
2019-05-01T23:19:14.113Z,9.19
2019-05-01T23:21:45.877Z,9.22
2019-05-01T23:24:15.417Z,9.22
2019-05-01T23:26:48.102Z,9.24
2019-05-01T23:29:16.047Z,9.27
2019-05-01T23:31:45.777Z,9.18
2019-05-01T23:34:15.185Z,9.14
2019-05-01T23:36:44.628Z,9.14
2019-05-01T23:39:14.768Z,9.12
2019-05-01T23:41:46.761Z,9.12
2019-05-01T23:44:15.399Z,9.11
2019-05-01T23:46:47.904Z,9.11
2019-05-01T23:49:17.396Z,9.10
2019-05-01T23:51:46.848Z,9.04
2019-05-01T23:54:16.297Z,8.94
2019-05-01T23:56:45.737Z,8.86
2019-05-01T23:59:19.936Z,8.86
